Fisher Golf — FUGD — position and weather

sailwx.info

Track history (hours):
 
Tides and Currents Weather Stations Pressure Air Temp Water Temp Dewpoint Dewpoint Depression Visibility Wind Speed Wind Dir Waves Ship Positions

Fisher Golf

Last reported at 2015-Apr-15 05:32 UTC. Time now 2015-Apr-18 04:58 UTC.
Position N 45°55' W 001°20'.

Length 20 m.

Type: Fishing. MMSI: 228239000.

Date/timePositionNaut miles runAvg speedWind from/ knotsBaromVisibWave heightAir tempDewpointWater temp
2015-Apr-15 05:32N 45°55' W 001°20'0 0.0
2015-Apr-15 03:20N 45°55' W 001°20'0 0.0
2015-Apr-15 02:23N 45°55' W 001°20'  
2015-Apr-10 03:17N 46°24' W 003°21'3 3.4
2015-Apr-10 02:33N 46°23' W 003°25'4 1.5
2015-Apr-10 00:10N 46°25' W 003°29'2 3.0
2015-Apr-09 23:29N 46°25' W 003°26'3 3.1
2015-Apr-09 22:30N 46°24' W 003°22'3 3.2
2015-Apr-09 21:32N 46°22' W 003°18'28 3.1
2015-Apr-09 12:33N 46°07' W 002°44'10 9.8
2015-Apr-09 11:33N 46°05' W 002°30'1010.2
2015-Apr-09 10:31N 46°03' W 002°15'10 9.9
2015-Apr-09 09:29N 46°00' W 002°01'5 4.9
2015-Apr-09 08:33N 45°60' W 001°54'  
Track history (hours):
 
Tides and Currents Weather Stations Pressure Air Temp Water Temp Dewpoint Dewpoint Depression Visibility Wind Speed Wind Dir Waves Ship Positions

Fisher Golf

Last reported at 2015-Apr-15 05:32 UTC. Time now 2015-Apr-18 04:58 UTC.
Position N 45°55' W 001°20'.

Length 20 m.

Type: Fishing. MMSI: 228239000.

Date/timePositionNaut miles runAvg speedWind from/ knotsBaromVisibWave heightAir tempDewpointWater temp
2015-Apr-15 05:32N 45°55' W 001°20'0 0.0
2015-Apr-15 03:20N 45°55' W 001°20'0 0.0
2015-Apr-15 02:23N 45°55' W 001°20'  
2015-Apr-10 03:17N 46°24' W 003°21'3 3.4
2015-Apr-10 02:33N 46°23' W 003°25'4 1.5
2015-Apr-10 00:10N 46°25' W 003°29'2 3.0
2015-Apr-09 23:29N 46°25' W 003°26'3 3.1
2015-Apr-09 22:30N 46°24' W 003°22'3 3.2
2015-Apr-09 21:32N 46°22' W 003°18'28 3.1
2015-Apr-09 12:33N 46°07' W 002°44'10 9.8
2015-Apr-09 11:33N 46°05' W 002°30'1010.2
2015-Apr-09 10:31N 46°03' W 002°15'10 9.9
2015-Apr-09 09:29N 46°00' W 002°01'5 4.9
2015-Apr-09 08:33N 45°60' W 001°54'  

Dump ship's entire track history